createdAt,value
2019-03-23T00:00:04.112Z,165.03
2019-03-23T00:02:51.904Z,112.90
2019-03-23T00:05:32.633Z,162.20
2019-03-23T00:08:01.077Z,148.33
2019-03-23T00:10:29.544Z,153.10
2019-03-23T00:12:58.217Z,157.80
2019-03-23T00:15:26.652Z,183.73
2019-03-23T00:17:55.123Z,170.03
2019-03-23T00:20:23.555Z,144.23
2019-03-23T00:23:11.355Z,200.70
2019-03-23T00:25:39.808Z,194.97
2019-03-23T00:28:08.271Z,189.57
2019-03-23T00:30:36.729Z,186.73
2019-03-23T00:33:05.163Z,180.93
2019-03-23T00:35:33.627Z,114.83
2019-03-23T00:38:02.087Z,199.30
2019-03-23T00:40:30.546Z,188.00
2019-03-23T00:42:59.007Z,198.03
2019-03-23T00:45:27.435Z,168.90
2019-03-23T00:47:55.909Z,200.23
2019-03-23T00:50:43.717Z,155.13
2019-03-23T00:53:12.145Z,196.57
2019-03-23T00:55:40.635Z,185.93
2019-03-23T00:58:09.071Z,202.90
2019-03-23T01:00:37.542Z,197.90
2019-03-23T01:03:06.011Z,173.57
2019-03-23T01:05:34.482Z,190.27
2019-03-23T01:08:03.010Z,151.73
2019-03-23T01:10:31.476Z,178.37
2019-03-23T01:12:59.931Z,173.43
2019-03-23T01:15:28.391Z,183.27
2019-03-23T01:17:56.892Z,169.97
2019-03-23T01:20:25.519Z,164.00
2019-03-23T01:22:53.951Z,185.17
2019-03-23T01:25:41.745Z,195.00
2019-03-23T01:28:10.180Z,166.83
2019-03-23T01:30:57.976Z,180.33
2019-03-23T01:33:26.400Z,163.77
2019-03-23T01:35:54.856Z,170.20
2019-03-23T01:38:23.325Z,184.57
2019-03-23T01:40:51.783Z,173.50
2019-03-23T01:43:20.209Z,159.03
2019-03-23T01:45:48.759Z,167.90
2019-03-23T01:48:17.197Z,161.50
2019-03-23T01:50:45.652Z,170.73
2019-03-23T01:53:14.100Z,172.53
2019-03-23T01:55:42.532Z,175.47
2019-03-23T01:58:11.003Z,154.47
2019-03-23T02:00:58.796Z,169.57
2019-03-23T02:03:27.310Z,170.50
2019-03-23T02:05:55.757Z,161.80
2019-03-23T02:08:24.213Z,155.37
2019-03-23T02:10:52.647Z,145.20
2019-03-23T02:13:21.100Z,134.63
2019-03-23T02:15:49.599Z,143.53
2019-03-23T02:18:18.341Z,145.10
2019-03-23T02:20:47.383Z,133.43
2019-03-23T02:23:15.808Z,67.93
2019-03-23T02:25:44.244Z,106.90
2019-03-23T02:28:12.714Z,123.47
2019-03-23T02:31:00.961Z,77.17
2019-03-23T02:33:29.425Z,109.03
2019-03-23T02:35:57.892Z,117.77
2019-03-23T02:38:26.320Z,111.23
2019-03-23T02:40:54.752Z,103.53
2019-03-23T02:43:42.567Z,103.37
2019-03-23T02:46:10.993Z,68.33
2019-03-23T02:48:39.595Z,114.67
2019-03-23T02:54:02.897Z,120.73
2019-03-23T02:56:31.328Z,102.00
2019-03-23T02:58:59.791Z,109.70
2019-03-23T03:01:28.307Z,112.30
2019-03-23T03:03:56.838Z,102.87
2019-03-23T03:06:25.269Z,111.10
2019-03-23T03:08:53.725Z,123.53
2019-03-23T03:11:22.193Z,109.20
2019-03-23T03:14:10.022Z,112.57
2019-03-23T03:16:38.508Z,117.53
2019-03-23T03:19:06.962Z,108.53
2019-03-23T03:21:35.396Z,117.23
2019-03-23T03:24:03.865Z,118.00
2019-03-23T03:26:32.290Z,98.47
2019-03-23T03:29:00.736Z,108.43
2019-03-23T03:31:29.342Z,108.83
2019-03-23T03:33:57.994Z,103.13
2019-03-23T03:36:29.746Z,107.40
2019-03-23T03:38:56.610Z,133.80
2019-03-23T03:41:25.078Z,109.20
2019-03-23T03:43:53.536Z,84.97
2019-03-23T03:46:21.967Z,89.37
2019-03-23T03:48:50.409Z,95.73
2019-03-23T03:51:18.878Z,108.90
2019-03-23T03:53:47.307Z,94.10
2019-03-23T03:56:15.769Z,96.97
2019-03-23T03:58:44.213Z,92.00
2019-03-23T04:01:12.668Z,93.93
2019-03-23T04:03:41.121Z,95.80
2019-03-23T04:06:09.556Z,84.27
2019-03-23T04:08:38.083Z,89.20
2019-03-23T04:11:06.520Z,89.03
2019-03-23T04:13:34.996Z,85.03
2019-03-23T04:16:22.853Z,88.83
2019-03-23T04:18:51.280Z,101.70
2019-03-23T04:21:19.737Z,83.00
2019-03-23T04:23:48.162Z,81.20
2019-03-23T04:26:16.610Z,86.57
2019-03-23T04:28:45.038Z,91.67
2019-03-23T04:31:13.517Z,96.27
2019-03-23T04:34:01.337Z,76.80
2019-03-23T04:36:29.824Z,81.93
2019-03-23T04:38:58.261Z,80.30
2019-03-23T04:41:26.736Z,89.90
2019-03-23T04:43:55.179Z,83.13
2019-03-23T04:46:23.608Z,90.70
2019-03-23T04:49:11.415Z,86.07
2019-03-23T04:51:39.832Z,104.17
2019-03-23T04:57:23.296Z,87.07
2019-03-23T04:59:51.783Z,89.83
2019-03-23T05:02:20.264Z,90.97
2019-03-23T05:04:48.731Z,94.77
2019-03-23T05:07:17.211Z,86.23
2019-03-23T05:09:45.667Z,96.77
2019-03-23T05:12:14.093Z,88.83
2019-03-23T05:14:42.613Z,92.60
2019-03-23T05:17:11.075Z,101.17
2019-03-23T05:19:39.510Z,98.50
2019-03-23T05:22:07.978Z,108.27
2019-03-23T05:24:36.411Z,103.83
2019-03-23T05:27:04.908Z,98.90
2019-03-23T05:29:33.376Z,108.17
2019-03-23T05:32:01.841Z,98.23
2019-03-23T05:34:30.330Z,106.87
2019-03-23T05:36:58.785Z,101.80
2019-03-23T05:39:39.182Z,101.50
2019-03-23T05:42:07.619Z,93.30
2019-03-23T05:44:36.042Z,106.53
2019-03-23T05:47:04.510Z,104.60
2019-03-23T05:49:32.935Z,111.60
2019-03-23T05:52:01.624Z,93.10
2019-03-23T05:54:30.294Z,103.73
2019-03-23T05:57:19.819Z,117.10
2019-03-23T05:59:48.239Z,105.97
2019-03-23T06:02:16.667Z,114.13
2019-03-23T06:04:45.210Z,116.80
2019-03-23T06:07:13.639Z,105.37
2019-03-23T06:09:42.107Z,113.70
2019-03-23T06:12:10.533Z,112.67
2019-03-23T06:14:38.983Z,118.83
2019-03-23T06:17:07.451Z,113.67
2019-03-23T06:19:36.051Z,119.97
2019-03-23T06:22:04.505Z,118.30
2019-03-23T06:24:33.088Z,109.47
2019-03-23T06:27:01.551Z,112.13
2019-03-23T06:29:29.983Z,111.93
2019-03-23T06:31:58.416Z,120.47
2019-03-23T06:34:26.872Z,114.10
2019-03-23T06:37:14.659Z,123.30
2019-03-23T06:39:43.091Z,109.57
2019-03-23T06:42:11.551Z,105.30
2019-03-23T06:44:39.974Z,125.30
2019-03-23T06:47:08.437Z,121.73
2019-03-23T06:49:36.899Z,110.93
2019-03-23T06:52:05.390Z,123.37
2019-03-23T06:54:33.869Z,108.47
2019-03-23T06:57:02.319Z,119.00
2019-03-23T06:59:30.756Z,106.40
2019-03-23T07:02:18.553Z,113.20
2019-03-23T07:04:47.016Z,119.70
2019-03-23T07:07:15.438Z,115.20
2019-03-23T07:09:43.911Z,118.37
2019-03-23T07:12:12.339Z,115.83
2019-03-23T07:14:40.855Z,112.07
2019-03-23T07:20:07.676Z,98.00
2019-03-23T07:22:36.204Z,112.57
2019-03-23T07:25:07.063Z,103.53
2019-03-23T07:27:35.527Z,109.00
2019-03-23T07:30:06.883Z,113.10
2019-03-23T07:32:35.312Z,124.73
2019-03-23T07:35:04.507Z,108.23
2019-03-23T07:37:32.972Z,112.03
2019-03-23T07:40:01.432Z,121.53
2019-03-23T07:42:29.896Z,121.77
2019-03-23T07:44:58.375Z,123.37
2019-03-23T07:47:26.804Z,126.40
2019-03-23T07:49:55.264Z,102.57
2019-03-23T07:52:23.721Z,104.70
2019-03-23T07:54:52.156Z,107.27
2019-03-23T07:57:20.704Z,111.50
2019-03-23T07:59:49.136Z,118.43
2019-03-23T08:02:17.875Z,109.77
2019-03-23T08:04:46.308Z,100.90
2019-03-23T08:07:14.749Z,116.40
2019-03-23T08:09:43.203Z,97.17
2019-03-23T08:12:11.659Z,110.37
2019-03-23T08:14:40.131Z,114.90
2019-03-23T08:17:08.791Z,100.67
2019-03-23T08:19:37.288Z,112.20
2019-03-23T08:22:05.895Z,101.27
2019-03-23T08:24:34.348Z,109.13
2019-03-23T08:27:02.804Z,110.03
2019-03-23T08:29:31.231Z,110.13
2019-03-23T08:31:59.685Z,110.53
2019-03-23T08:34:28.107Z,112.00
2019-03-23T08:36:56.559Z,96.23
2019-03-23T08:39:24.991Z,109.37
2019-03-23T08:41:53.477Z,108.33
2019-03-23T08:44:21.981Z,109.70
2019-03-23T08:47:09.839Z,115.40
2019-03-23T08:49:38.298Z,101.53
2019-03-23T08:52:26.087Z,110.33
2019-03-23T08:54:54.552Z,108.97
2019-03-23T08:57:22.975Z,97.23
2019-03-23T08:59:51.418Z,89.17
2019-03-23T09:02:21.719Z,116.67
2019-03-23T09:07:45.227Z,107.60
2019-03-23T09:10:13.652Z,104.00
2019-03-23T09:12:42.086Z,91.23
2019-03-23T09:15:29.880Z,96.90
2019-03-23T09:17:58.304Z,70.50
2019-03-23T09:20:26.773Z,99.53
2019-03-23T09:22:55.254Z,96.93
2019-03-23T09:25:23.706Z,104.30
2019-03-23T09:27:52.163Z,86.00
2019-03-23T09:30:20.701Z,95.67
2019-03-23T09:32:49.134Z,83.93
2019-03-23T09:35:17.595Z,101.57
2019-03-23T09:37:46.019Z,81.43
2019-03-23T09:40:14.487Z,106.37
2019-03-23T09:42:42.988Z,91.57
2019-03-23T09:45:14.151Z,95.53
2019-03-23T09:47:42.125Z,103.63
2019-03-23T09:50:11.092Z,92.87
2019-03-23T09:52:39.549Z,89.53
2019-03-23T09:55:08.346Z,89.90
2019-03-23T09:57:36.841Z,98.67
2019-03-23T10:00:08.244Z,99.37
2019-03-23T10:02:56.008Z,96.23
2019-03-23T10:05:24.459Z,96.57
2019-03-23T10:07:52.887Z,84.93
2019-03-23T10:10:22.284Z,85.30
2019-03-23T10:12:50.946Z,90.40
2019-03-23T10:15:19.410Z,96.87
2019-03-23T10:17:47.924Z,100.97
2019-03-23T10:20:16.400Z,96.13
2019-03-23T10:22:44.848Z,97.30
2019-03-23T10:25:13.296Z,93.70
2019-03-23T10:27:41.728Z,67.17
2019-03-23T10:30:11.560Z,97.83
2019-03-23T10:32:39.991Z,101.33
2019-03-23T10:35:09.461Z,100.43
2019-03-23T10:37:37.924Z,98.70
2019-03-23T10:40:09.067Z,96.53
2019-03-23T10:42:37.499Z,91.10
2019-03-23T10:45:25.367Z,54.73
2019-03-23T10:50:22.268Z,81.40
2019-03-23T10:52:50.702Z,68.77
2019-03-23T10:55:19.153Z,88.20
2019-03-23T10:57:47.582Z,80.20
2019-03-23T11:00:16.671Z,104.87
2019-03-23T11:02:45.096Z,92.00
2019-03-23T11:05:13.624Z,91.57
2019-03-23T11:08:01.618Z,104.70
2019-03-23T11:10:30.121Z,86.80
2019-03-23T11:12:58.548Z,91.00
2019-03-23T11:15:27.093Z,86.90
2019-03-23T11:18:14.859Z,86.73
2019-03-23T11:21:02.643Z,93.87
2019-03-23T11:23:31.088Z,106.07
2019-03-23T11:25:59.595Z,49.40
2019-03-23T11:28:28.064Z,95.33
2019-03-23T11:30:56.563Z,87.90
2019-03-23T11:33:25.027Z,87.57
2019-03-23T11:35:57.664Z,83.00
2019-03-23T11:38:23.632Z,96.70
2019-03-23T11:40:55.107Z,85.70
2019-03-23T11:43:22.267Z,91.10
2019-03-23T11:45:50.700Z,98.93
2019-03-23T11:48:19.119Z,91.43
2019-03-23T11:50:47.575Z,85.83
2019-03-23T11:53:15.991Z,84.60
2019-03-23T11:55:44.514Z,85.83
2019-03-23T11:58:13.076Z,99.80
2019-03-23T12:00:41.530Z,93.20
2019-03-23T12:03:10.016Z,100.30
2019-03-23T12:05:38.551Z,94.37
2019-03-23T12:08:06.962Z,93.53
2019-03-23T12:10:35.428Z,93.13
2019-03-23T12:13:23.200Z,95.30
2019-03-23T12:15:51.653Z,97.63
2019-03-23T12:18:20.076Z,98.77
2019-03-23T12:20:48.527Z,77.70
2019-03-23T12:23:16.956Z,97.30
2019-03-23T12:25:45.427Z,79.90
2019-03-23T12:28:13.935Z,92.40
2019-03-23T12:30:42.367Z,87.03
2019-03-23T12:33:10.815Z,86.00
2019-03-23T12:35:39.245Z,88.57
2019-03-23T12:38:07.707Z,84.40
2019-03-23T12:40:36.568Z,93.10
2019-03-23T12:43:05.164Z,87.90
2019-03-23T12:45:33.615Z,87.43
2019-03-23T12:48:02.039Z,86.90
2019-03-23T12:50:30.507Z,90.20
2019-03-23T12:53:18.349Z,80.00
2019-03-23T12:55:46.795Z,98.37
2019-03-23T12:58:15.214Z,92.07
2019-03-23T13:00:43.683Z,81.63
2019-03-23T13:03:12.157Z,86.47
2019-03-23T13:05:40.667Z,87.67
2019-03-23T13:08:09.152Z,96.30
2019-03-23T13:10:37.696Z,82.70
2019-03-23T13:13:25.489Z,93.33
2019-03-23T13:16:13.256Z,87.57
2019-03-23T13:18:41.717Z,95.80
2019-03-23T13:21:10.139Z,81.87
2019-03-23T13:23:38.595Z,80.93
2019-03-23T13:26:26.361Z,95.60
2019-03-23T13:28:54.815Z,81.97
2019-03-23T13:31:42.582Z,95.93
2019-03-23T13:34:11.052Z,90.10
2019-03-23T13:36:39.897Z,78.80
2019-03-23T13:39:08.707Z,85.93
2019-03-23T13:41:48.128Z,83.23
2019-03-23T13:44:35.902Z,80.23
2019-03-23T13:47:04.359Z,90.50
2019-03-23T13:49:52.115Z,89.27
2019-03-23T13:52:39.972Z,92.33
2019-03-23T13:55:10.185Z,87.57
2019-03-23T13:57:40.938Z,84.17
2019-03-23T14:00:15.895Z,84.77
2019-03-23T14:02:44.664Z,81.80
2019-03-23T14:05:16.302Z,68.57
2019-03-23T14:07:45.149Z,85.63
2019-03-23T14:10:13.955Z,75.70
2019-03-23T14:12:42.764Z,83.37
2019-03-23T14:15:11.780Z,81.50
2019-03-23T14:17:40.275Z,88.20
2019-03-23T14:20:17.479Z,80.83
2019-03-23T14:22:46.257Z,79.17
2019-03-23T14:25:15.143Z,71.43
2019-03-23T14:27:43.794Z,82.27
2019-03-23T14:30:12.814Z,77.30
2019-03-23T14:32:41.792Z,79.33
2019-03-23T14:35:10.731Z,83.73
2019-03-23T14:37:39.362Z,81.03
2019-03-23T14:40:08.195Z,82.17
2019-03-23T14:42:36.739Z,92.83
2019-03-23T14:45:08.458Z,88.87
2019-03-23T14:47:37.258Z,99.80
2019-03-23T14:50:06.688Z,92.63
2019-03-23T14:52:35.310Z,93.93
2019-03-23T14:55:23.263Z,80.80
2019-03-23T14:58:04.101Z,70.37
2019-03-23T15:00:33.982Z,57.87
2019-03-23T15:03:02.437Z,53.87
2019-03-23T15:05:32.640Z,63.97
2019-03-23T15:08:01.287Z,42.87
2019-03-23T15:10:29.855Z,47.93
2019-03-23T15:12:58.426Z,48.10
2019-03-23T15:15:27.055Z,40.57
2019-03-23T15:17:55.810Z,40.93
2019-03-23T15:20:31.975Z,36.93
2019-03-23T15:23:00.711Z,38.00
2019-03-23T15:25:29.575Z,40.87
2019-03-23T15:27:58.299Z,45.07
2019-03-23T15:30:27.080Z,50.53
2019-03-23T15:32:55.508Z,46.10
2019-03-23T15:35:23.956Z,41.97
2019-03-23T15:37:52.408Z,46.30
2019-03-23T15:40:21.458Z,43.23
2019-03-23T15:42:50.019Z,50.53
2019-03-23T15:45:18.546Z,30.73
2019-03-23T15:47:47.040Z,34.57
2019-03-23T15:50:16.147Z,29.43
2019-03-23T15:52:44.739Z,16.57
2019-03-23T15:55:13.297Z,22.03
2019-03-23T15:57:41.975Z,20.73
2019-03-23T16:00:12.404Z,27.67
2019-03-23T16:02:41.301Z,23.43
2019-03-23T16:05:10.122Z,14.80
2019-03-23T16:07:38.597Z,22.33
2019-03-23T16:10:27.356Z,24.13
2019-03-23T16:12:55.799Z,20.20
2019-03-23T16:15:24.495Z,20.73
2019-03-23T16:17:52.917Z,14.10
2019-03-23T16:20:21.619Z,18.90
2019-03-23T16:22:50.051Z,21.50
2019-03-23T16:25:18.727Z,31.70
2019-03-23T16:27:47.482Z,19.27
2019-03-23T16:30:19.073Z,19.30
2019-03-23T16:32:47.519Z,27.23
2019-03-23T16:35:15.952Z,23.70
2019-03-23T16:37:44.396Z,26.00
2019-03-23T16:40:13.255Z,18.00
2019-03-23T16:42:45.508Z,24.30
2019-03-23T16:45:11.983Z,27.03
2019-03-23T16:47:41.985Z,26.73
2019-03-23T16:50:10.846Z,29.20
2019-03-23T16:52:42.268Z,26.23
2019-03-23T16:55:11.371Z,28.27
2019-03-23T16:57:39.799Z,22.80
2019-03-23T17:00:11.058Z,26.10
2019-03-23T17:02:41.228Z,37.07
2019-03-23T17:05:10.174Z,31.20
2019-03-23T17:07:38.983Z,33.17
2019-03-23T17:10:08.843Z,35.23
2019-03-23T17:12:37.353Z,28.00
2019-03-23T17:15:07.542Z,32.43
2019-03-23T17:17:36.086Z,38.03
2019-03-23T17:20:05.042Z,32.87
2019-03-23T17:22:33.496Z,30.77
2019-03-23T17:25:01.993Z,25.07
2019-03-23T17:27:30.456Z,22.70
2019-03-23T17:29:58.880Z,34.93
2019-03-23T17:32:27.306Z,30.70
2019-03-23T17:34:55.772Z,26.43
2019-03-23T17:37:25.706Z,30.13
2019-03-23T17:40:13.775Z,24.53
2019-03-23T17:42:42.242Z,22.33
2019-03-23T17:45:11.098Z,28.77
2019-03-23T17:47:58.955Z,37.20
2019-03-23T17:50:27.746Z,37.73
2019-03-23T17:52:56.459Z,45.27
2019-03-23T17:55:25.676Z,32.23
2019-03-23T17:57:54.198Z,22.50
2019-03-23T18:03:18.439Z,30.80
2019-03-23T18:05:48.678Z,26.33
2019-03-23T18:08:17.370Z,23.00
2019-03-23T18:10:45.938Z,26.03
2019-03-23T18:13:16.796Z,27.70
2019-03-23T18:15:45.010Z,30.33
2019-03-23T18:18:13.676Z,27.87
2019-03-23T18:20:42.503Z,23.00
2019-03-23T18:23:11.147Z,25.83
2019-03-23T18:25:40.010Z,23.60
2019-03-23T18:28:08.763Z,30.10
2019-03-23T18:30:41.736Z,43.50
2019-03-23T18:33:10.487Z,32.10
2019-03-23T18:35:40.372Z,32.03
2019-03-23T18:38:08.927Z,24.63
2019-03-23T18:40:39.345Z,25.27
2019-03-23T18:43:08.154Z,27.43
2019-03-23T18:45:36.773Z,29.20
2019-03-23T18:48:05.906Z,28.43
2019-03-23T18:50:34.585Z,34.45
2019-03-23T18:53:03.266Z,30.80
2019-03-23T18:55:31.991Z,23.67
2019-03-23T18:58:00.400Z,19.50
2019-03-23T19:00:42.135Z,25.40
2019-03-23T19:03:10.801Z,26.73
2019-03-23T19:05:39.341Z,23.50
2019-03-23T19:08:08.099Z,32.90
2019-03-23T19:10:55.887Z,26.73
2019-03-23T19:13:24.338Z,25.30
2019-03-23T19:15:52.783Z,26.83
2019-03-23T19:18:21.271Z,23.07
2019-03-23T19:20:49.722Z,22.27
2019-03-23T19:23:18.176Z,27.87
2019-03-23T19:25:46.596Z,32.23
2019-03-23T19:28:15.016Z,24.10
2019-03-23T19:30:43.463Z,22.53
2019-03-23T19:33:11.915Z,21.30
2019-03-23T19:35:40.351Z,28.80
2019-03-23T19:38:08.808Z,30.93
2019-03-23T19:40:37.232Z,31.13
2019-03-23T19:43:25.042Z,27.30
2019-03-23T19:45:53.465Z,25.33
2019-03-23T19:48:21.886Z,37.17
2019-03-23T19:50:50.337Z,32.87
2019-03-23T19:53:18.835Z,29.70
2019-03-23T19:55:47.288Z,35.70
2019-03-23T19:58:15.764Z,29.27
2019-03-23T20:00:44.381Z,26.23
2019-03-23T20:03:13.094Z,32.27
2019-03-23T20:05:41.555Z,40.57
2019-03-23T20:08:10.312Z,29.87
2019-03-23T20:10:38.831Z,25.20
2019-03-23T20:13:07.252Z,23.17
2019-03-23T20:15:37.577Z,31.93
2019-03-23T20:18:06.535Z,33.43
2019-03-23T20:20:35.103Z,31.50
2019-03-23T20:23:03.919Z,23.13
2019-03-23T20:25:35.449Z,27.80
2019-03-23T20:28:04.016Z,21.60
2019-03-23T20:30:32.434Z,32.97
2019-03-23T20:33:00.938Z,25.30
2019-03-23T20:35:29.398Z,27.93
2019-03-23T20:38:06.991Z,29.70
2019-03-23T20:40:35.837Z,28.47
2019-03-23T20:43:04.350Z,33.37
2019-03-23T20:45:33.062Z,32.67
2019-03-23T20:48:07.142Z,27.63
2019-03-23T20:50:35.782Z,30.73
2019-03-23T20:53:04.579Z,21.03
2019-03-23T20:55:35.207Z,24.13
2019-03-23T20:58:06.459Z,23.93
2019-03-23T21:00:34.912Z,27.90
2019-03-23T21:03:03.772Z,20.90
2019-03-23T21:05:34.242Z,21.63
2019-03-23T21:08:03.158Z,35.43
2019-03-23T21:10:34.744Z,34.80
2019-03-23T21:13:22.640Z,25.00
2019-03-23T21:15:51.087Z,29.33
2019-03-23T21:18:19.540Z,40.87
2019-03-23T21:20:47.968Z,33.50
2019-03-23T21:23:16.414Z,39.63
2019-03-23T21:25:44.902Z,25.77
2019-03-23T21:28:13.319Z,26.33
2019-03-23T21:30:43.923Z,21.57
2019-03-23T21:33:12.372Z,27.70
2019-03-23T21:35:40.920Z,19.30
2019-03-23T21:38:28.800Z,22.60
2019-03-23T21:40:57.301Z,20.73
2019-03-23T21:43:25.743Z,35.53
2019-03-23T21:45:55.097Z,37.90
2019-03-23T21:48:23.516Z,30.00
2019-03-23T21:50:52.041Z,24.30
2019-03-23T21:53:20.485Z,25.63
2019-03-23T21:55:48.954Z,31.70
2019-03-23T21:58:17.398Z,29.03
2019-03-23T22:01:05.163Z,36.73
2019-03-23T22:03:33.612Z,22.83
2019-03-23T22:06:02.060Z,26.10
2019-03-23T22:08:30.586Z,27.40
2019-03-23T22:10:59.007Z,34.00
2019-03-23T22:13:27.525Z,23.03
2019-03-23T22:16:01.058Z,31.03
2019-03-23T22:18:29.476Z,24.73
2019-03-23T22:20:57.930Z,27.03
2019-03-23T22:23:26.337Z,33.47
2019-03-23T22:26:14.292Z,29.30
2019-03-23T22:28:42.711Z,39.10
2019-03-23T22:31:11.131Z,35.67
2019-03-23T22:33:39.580Z,24.07
2019-03-23T22:36:08.007Z,27.17
2019-03-23T22:38:36.439Z,33.27
2019-03-23T22:41:04.927Z,30.33
2019-03-23T22:43:33.388Z,29.13
2019-03-23T22:46:01.810Z,30.83
2019-03-23T22:48:30.225Z,43.73
2019-03-23T22:51:18.003Z,27.70
2019-03-23T22:53:46.430Z,30.10
2019-03-23T22:56:14.871Z,26.77
2019-03-23T22:58:43.287Z,36.03
2019-03-23T23:01:12.172Z,38.17
2019-03-23T23:03:59.944Z,30.37
2019-03-23T23:06:28.463Z,26.33
2019-03-23T23:08:56.934Z,30.57
2019-03-23T23:11:25.417Z,30.07
2019-03-23T23:13:53.828Z,27.00
2019-03-23T23:16:22.276Z,26.03
2019-03-23T23:18:50.715Z,35.03
2019-03-23T23:21:38.585Z,34.63
2019-03-23T23:24:06.998Z,22.40
2019-03-23T23:26:35.419Z,23.17
2019-03-23T23:29:03.947Z,25.73
2019-03-23T23:31:32.445Z,28.90
2019-03-23T23:34:00.884Z,34.83
2019-03-23T23:36:29.415Z,29.00
2019-03-23T23:38:57.835Z,22.80
2019-03-23T23:41:26.281Z,33.00
2019-03-23T23:44:14.114Z,26.50
2019-03-23T23:46:42.566Z,22.57
2019-03-23T23:49:30.330Z,30.77
2019-03-23T23:51:58.775Z,23.73
2019-03-23T23:54:46.531Z,26.87
2019-03-23T23:57:14.974Z,29.37
2019-03-23T23:59:43.391Z,30.17
